createdAt,value
2023-01-10T00:00:42.627Z,5.49
2023-01-10T00:03:11.476Z,5.54
2023-01-10T00:05:40.574Z,5.56
2023-01-10T00:08:08.674Z,5.54
2023-01-10T00:10:35.831Z,5.55
2023-01-10T00:13:21.041Z,5.50
2023-01-10T00:15:48.232Z,5.55
2023-01-10T00:18:14.970Z,5.59
2023-01-10T00:20:41.541Z,5.65
2023-01-10T00:23:08.024Z,5.70
2023-01-10T00:25:36.045Z,5.68
2023-01-10T00:28:10.772Z,5.67
2023-01-10T00:30:40.770Z,5.58
2023-01-10T00:33:08.970Z,5.53
2023-01-10T00:35:35.911Z,5.52
2023-01-10T00:38:05.746Z,5.54
2023-01-10T00:40:33.522Z,5.59
2023-01-10T00:43:19.372Z,5.64
2023-01-10T00:45:47.549Z,5.82
2023-01-10T00:48:15.103Z,5.67
2023-01-10T00:50:42.297Z,5.74
2023-01-10T00:53:09.060Z,5.80
2023-01-10T00:55:36.571Z,5.78
2023-01-10T00:58:03.730Z,5.78
2023-01-10T01:00:30.468Z,5.76
2023-01-10T01:02:56.971Z,5.67
2023-01-10T01:05:23.597Z,5.66
2023-01-10T01:07:51.963Z,5.72
2023-01-10T01:10:28.587Z,5.71
2023-01-10T01:12:57.679Z,5.36
2023-01-10T01:15:26.277Z,5.56
2023-01-10T01:17:53.272Z,5.66
2023-01-10T01:20:21.153Z,5.68
2023-01-10T01:22:48.380Z,5.72
2023-01-10T01:25:14.858Z,5.74
2023-01-10T01:27:41.411Z,5.64
2023-01-10T01:30:10.879Z,5.66
2023-01-10T01:32:38.027Z,5.65
2023-01-10T01:35:08.377Z,5.26
2023-01-10T01:37:34.942Z,5.19
2023-01-10T01:40:01.476Z,5.19
2023-01-10T01:42:33.001Z,5.21
2023-01-10T01:45:22.375Z,5.18
2023-01-10T01:48:00.545Z,5.08
2023-01-10T01:51:08.888Z,5.09
2023-01-10T01:53:59.054Z,5.07
2023-01-10T01:56:39.547Z,5.25
2023-01-10T01:59:29.127Z,5.20
2023-01-10T02:02:04.350Z,5.26
2023-01-10T02:04:45.258Z,5.36
2023-01-10T02:07:13.725Z,5.38
2023-01-10T02:09:58.234Z,5.42
2023-01-10T02:12:29.233Z,5.43
2023-01-10T02:14:56.872Z,5.53
2023-01-10T02:17:23.323Z,5.49
2023-01-10T02:19:59.063Z,5.47
2023-01-10T02:23:05.787Z,5.35
2023-01-10T02:25:50.322Z,5.29
2023-01-10T02:28:22.854Z,5.42
2023-01-10T02:31:50.338Z,5.42
2023-01-10T02:34:32.983Z,5.40
2023-01-10T02:37:16.173Z,5.41
2023-01-10T02:40:07.270Z,5.38
2023-01-10T02:42:54.970Z,5.32
2023-01-10T02:45:40.736Z,5.34
2023-01-10T02:48:07.868Z,5.44
2023-01-10T02:50:43.172Z,5.48
2023-01-10T02:53:18.512Z,5.52
2023-01-10T02:56:39.077Z,5.30
2023-01-10T02:59:51.507Z,5.28
2023-01-10T03:02:48.961Z,5.34
2023-01-10T03:05:37.715Z,5.35
2023-01-10T03:08:35.808Z,5.31
2023-01-10T03:11:07.007Z,5.42
2023-01-10T03:13:57.856Z,5.37
2023-01-10T03:16:32.223Z,5.45
2023-01-10T03:19:04.385Z,5.53
2023-01-10T03:21:34.018Z,5.52
2023-01-10T03:24:15.999Z,5.39
2023-01-10T03:26:52.541Z,5.37
2023-01-10T03:29:28.846Z,5.44
2023-01-10T03:32:03.182Z,5.48
2023-01-10T03:34:31.255Z,5.43
2023-01-10T03:37:44.173Z,5.36
2023-01-10T03:40:36.927Z,5.41
2023-01-10T03:43:35.564Z,5.37
2023-01-10T03:46:12.368Z,5.38
2023-01-10T03:48:45.901Z,5.42
2023-01-10T03:51:14.149Z,5.45
2023-01-10T03:53:40.597Z,5.44
2023-01-10T03:56:07.685Z,5.43
2023-01-10T03:58:34.344Z,5.47
2023-01-10T04:01:00.934Z,5.46
2023-01-10T04:03:27.459Z,5.55
2023-01-10T04:05:53.941Z,5.55
2023-01-10T04:08:20.430Z,5.54
2023-01-10T04:10:49.841Z,5.60
2023-01-10T04:13:16.346Z,5.62
2023-01-10T04:15:42.947Z,5.53
2023-01-10T04:18:09.425Z,5.36
2023-01-10T04:20:35.852Z,5.32
2023-01-10T04:23:02.489Z,5.32
2023-01-10T04:25:28.974Z,5.34
2023-01-10T04:27:55.456Z,5.40
2023-01-10T04:30:21.945Z,5.28
2023-01-10T04:32:48.441Z,5.32
2023-01-10T04:35:15.051Z,5.41
2023-01-10T04:37:41.934Z,5.40
2023-01-10T04:40:09.413Z,5.43
2023-01-10T04:42:35.921Z,5.38
2023-01-10T04:45:02.847Z,5.41
2023-01-10T04:47:29.326Z,5.34
2023-01-10T04:49:55.835Z,5.38
2023-01-10T04:52:22.487Z,5.41
2023-01-10T04:54:48.993Z,5.32
2023-01-10T04:57:15.523Z,5.31
2023-01-10T04:59:41.991Z,5.39
2023-01-10T05:02:08.536Z,5.37
2023-01-10T05:04:35.126Z,5.32
2023-01-10T05:07:01.591Z,5.38
2023-01-10T05:09:28.021Z,5.35
2023-01-10T05:11:55.008Z,5.40
2023-01-10T05:14:21.873Z,5.45
2023-01-10T05:16:48.364Z,5.39
2023-01-10T05:19:14.883Z,5.37
2023-01-10T05:21:41.431Z,5.37
2023-01-10T05:24:09.446Z,5.42
2023-01-10T05:26:35.902Z,5.39
2023-01-10T05:29:02.414Z,5.38
2023-01-10T05:31:28.905Z,5.44
2023-01-10T05:33:55.409Z,5.45
2023-01-10T05:36:22.002Z,5.46
2023-01-10T05:38:48.539Z,5.38
2023-01-10T05:41:15.064Z,5.38
2023-01-10T05:43:41.803Z,5.37
2023-01-10T05:46:09.241Z,5.34
2023-01-10T05:48:35.800Z,5.35
2023-01-10T05:51:02.319Z,5.37
2023-01-10T05:53:29.018Z,5.40
2023-01-10T05:56:04.578Z,5.40
2023-01-10T05:58:31.108Z,5.36
2023-01-10T06:00:58.425Z,5.40
2023-01-10T06:03:26.505Z,5.45
2023-01-10T06:05:55.545Z,5.44
2023-01-10T06:08:22.948Z,5.46
2023-01-10T06:10:50.122Z,5.48
2023-01-10T06:13:16.715Z,5.47
2023-01-10T06:15:43.829Z,5.42
2023-01-10T06:18:12.282Z,5.44
2023-01-10T06:20:39.970Z,5.46
2023-01-10T06:23:07.005Z,5.42
2023-01-10T06:25:40.128Z,5.39
2023-01-10T06:28:08.312Z,5.48
2023-01-10T06:30:35.295Z,5.40
2023-01-10T06:33:04.548Z,5.43
2023-01-10T06:35:31.693Z,5.39
2023-01-10T06:37:59.255Z,5.37
2023-01-10T06:40:27.351Z,5.30
2023-01-10T06:42:53.940Z,5.34
2023-01-10T06:45:20.729Z,5.38
2023-01-10T06:47:47.210Z,5.35
2023-01-10T06:50:14.309Z,5.30
2023-01-10T06:52:41.844Z,5.32
2023-01-10T06:55:08.841Z,5.25
2023-01-10T06:57:35.576Z,5.22
2023-01-10T07:00:07.701Z,5.31
2023-01-10T07:02:34.216Z,5.31
2023-01-10T07:05:00.822Z,5.33
2023-01-10T07:07:27.311Z,5.40
2023-01-10T07:09:53.812Z,5.32
2023-01-10T07:12:20.305Z,5.26
2023-01-10T07:14:46.755Z,5.25
2023-01-10T07:17:13.258Z,5.22
2023-01-10T07:19:39.751Z,5.22
2023-01-10T07:22:06.200Z,5.26
2023-01-10T07:24:32.715Z,5.30
2023-01-10T07:26:59.176Z,5.27
2023-01-10T07:29:25.668Z,5.19
2023-01-10T07:31:52.128Z,5.23
2023-01-10T07:34:18.874Z,5.22
2023-01-10T07:36:45.405Z,5.23
2023-01-10T07:39:11.954Z,5.27
2023-01-10T07:41:38.442Z,5.29
2023-01-10T07:44:05.757Z,5.26
2023-01-10T07:46:32.330Z,5.12
2023-01-10T07:48:58.917Z,5.09
2023-01-10T07:51:25.444Z,5.07
2023-01-10T07:53:51.979Z,5.11
2023-01-10T07:56:18.459Z,5.07
2023-01-10T07:58:46.292Z,5.09
2023-01-10T08:01:12.812Z,5.07
2023-01-10T08:03:39.550Z,5.12
2023-01-10T08:06:12.385Z,5.20
2023-01-10T08:08:39.430Z,5.21
2023-01-10T08:11:06.190Z,5.26
2023-01-10T08:13:33.116Z,5.24
2023-01-10T08:16:00.324Z,5.23
2023-01-10T08:18:27.790Z,5.19
2023-01-10T08:20:55.468Z,5.17
2023-01-10T08:23:22.297Z,5.10
2023-01-10T08:25:51.080Z,5.14
2023-01-10T08:28:17.731Z,5.07
2023-01-10T08:30:44.824Z,5.04
2023-01-10T08:33:12.337Z,5.06
2023-01-10T08:35:43.444Z,5.02
2023-01-10T08:38:11.668Z,4.91
2023-01-10T08:40:38.816Z,4.91
2023-01-10T08:43:09.850Z,4.93
2023-01-10T08:45:37.547Z,5.00
2023-01-10T08:48:05.950Z,4.94
2023-01-10T08:50:32.989Z,4.99
2023-01-10T08:53:00.950Z,5.10
2023-01-10T08:55:28.795Z,5.16
2023-01-10T08:57:55.269Z,5.27
2023-01-10T09:00:22.572Z,5.37
2023-01-10T09:02:49.196Z,5.37
2023-01-10T09:05:27.076Z,5.37
2023-01-10T09:08:00.557Z,5.40
2023-01-10T09:10:29.055Z,5.49
2023-01-10T09:12:59.525Z,5.56
2023-01-10T09:15:32.325Z,5.59
2023-01-10T09:18:03.392Z,5.61
2023-01-10T09:20:30.252Z,5.48
2023-01-10T09:22:58.376Z,5.43
2023-01-10T09:25:25.432Z,5.49
2023-01-10T09:28:00.351Z,5.50
2023-01-10T09:30:29.228Z,5.61
2023-01-10T09:32:57.777Z,5.60
2023-01-10T09:35:27.132Z,5.64
2023-01-10T09:37:59.057Z,5.61
2023-01-10T09:41:01.885Z,5.56
2023-01-10T09:44:02.385Z,5.64
2023-01-10T09:46:46.561Z,5.68
2023-01-10T09:49:31.382Z,5.82
2023-01-10T09:51:59.203Z,5.92
2023-01-10T09:54:31.687Z,5.94
2023-01-10T09:57:01.473Z,5.87
2023-01-10T09:59:41.564Z,5.87
2023-01-10T10:02:34.775Z,5.86
2023-01-10T10:05:18.009Z,5.90
2023-01-10T10:07:52.090Z,5.94
2023-01-10T10:10:31.598Z,5.88
2023-01-10T10:13:27.403Z,5.95
2023-01-10T10:16:37.389Z,5.96
2023-01-10T10:19:33.327Z,5.99
2023-01-10T10:22:41.406Z,5.96
2023-01-10T10:25:45.672Z,6.01
2023-01-10T10:28:56.897Z,6.18
2023-01-10T10:32:56.092Z,6.24
2023-01-10T10:35:45.363Z,6.35
2023-01-10T10:38:42.466Z,6.33
2023-01-10T10:41:40.353Z,6.33
2023-01-10T10:44:44.899Z,6.28
2023-01-10T10:47:21.139Z,6.27
2023-01-10T10:50:06.913Z,6.32
2023-01-10T10:52:37.257Z,6.39
2023-01-10T10:55:07.050Z,6.46
2023-01-10T10:57:45.651Z,6.54
2023-01-10T11:00:22.819Z,6.57
2023-01-10T11:03:05.396Z,6.61
2023-01-10T11:05:40.955Z,6.57
2023-01-10T11:08:13.978Z,6.54
2023-01-10T11:10:46.980Z,6.56
2023-01-10T11:13:34.704Z,6.62
2023-01-10T11:16:06.280Z,6.87
2023-01-10T11:18:33.761Z,6.91
2023-01-10T11:21:15.741Z,6.82
2023-01-10T11:23:53.337Z,6.81
2023-01-10T11:26:39.200Z,6.93
2023-01-10T11:29:24.692Z,7.03
2023-01-10T11:31:54.599Z,7.05
2023-01-10T11:34:35.071Z,6.95
2023-01-10T11:37:16.476Z,7.04
2023-01-10T11:39:43.438Z,7.11
2023-01-10T11:42:24.942Z,7.01
2023-01-10T11:44:51.460Z,7.09
2023-01-10T11:47:20.736Z,7.13
2023-01-10T11:49:50.121Z,7.18
2023-01-10T11:52:26.808Z,7.23
2023-01-10T11:54:58.480Z,6.90
2023-01-10T11:57:32.192Z,7.00
2023-01-10T12:00:07.213Z,7.06
2023-01-10T12:02:39.797Z,7.22
2023-01-10T12:05:13.093Z,7.15
2023-01-10T12:08:06.064Z,7.03
2023-01-10T12:10:34.878Z,7.07
2023-01-10T12:13:16.800Z,6.96
2023-01-10T12:15:43.380Z,7.05
2023-01-10T12:18:11.944Z,7.15
2023-01-10T12:20:48.657Z,7.19
2023-01-10T12:23:22.035Z,7.22
2023-01-10T12:25:50.049Z,7.30
2023-01-10T12:28:22.593Z,7.39
2023-01-10T12:30:51.846Z,7.40
2023-01-10T12:33:37.315Z,7.25
2023-01-10T12:36:13.987Z,7.28
2023-01-10T12:39:07.122Z,6.91
2023-01-10T12:42:01.487Z,7.05
2023-01-10T12:44:41.928Z,7.05
2023-01-10T12:47:28.512Z,7.10
2023-01-10T12:50:15.024Z,7.04
2023-01-10T12:53:15.975Z,7.06
2023-01-10T12:55:45.935Z,7.07
2023-01-10T12:58:40.229Z,6.99
2023-01-10T13:01:09.688Z,6.93
2023-01-10T13:03:37.198Z,6.90
2023-01-10T13:06:04.265Z,6.95
2023-01-10T13:08:35.951Z,6.86
2023-01-10T13:11:09.828Z,6.90
2023-01-10T13:13:43.268Z,6.80
2023-01-10T13:16:52.462Z,6.79
2023-01-10T13:19:21.348Z,6.74
2023-01-10T13:21:48.415Z,6.70
2023-01-10T13:24:14.768Z,6.75
2023-01-10T13:26:57.578Z,6.73
2023-01-10T13:29:40.651Z,6.72
2023-01-10T13:32:24.902Z,6.38
2023-01-10T13:34:52.540Z,6.49
2023-01-10T13:37:39.037Z,6.48
2023-01-10T13:40:07.309Z,6.51
2023-01-10T13:42:55.141Z,6.56
2023-01-10T13:45:31.423Z,6.61
2023-01-10T13:48:03.980Z,6.54
2023-01-10T13:50:42.359Z,6.60
2023-01-10T13:53:08.806Z,6.62
2023-01-10T13:55:46.144Z,6.69
2023-01-10T13:58:21.095Z,6.64
2023-01-10T14:01:13.195Z,6.59
2023-01-10T14:03:59.367Z,6.56
2023-01-10T14:06:28.639Z,6.57
2023-01-10T14:09:13.375Z,6.54
2023-01-10T14:11:42.882Z,6.58
2023-01-10T14:14:24.367Z,6.60
2023-01-10T14:17:10.345Z,6.44
2023-01-10T14:19:37.751Z,6.50
2023-01-10T14:22:04.535Z,6.55
2023-01-10T14:24:52.751Z,6.28
2023-01-10T14:27:22.759Z,6.23
2023-01-10T14:30:01.341Z,6.24
2023-01-10T14:32:38.281Z,6.27
2023-01-10T14:35:09.826Z,6.22
2023-01-10T14:38:08.300Z,6.18
2023-01-10T14:40:44.977Z,6.24
2023-01-10T14:43:17.845Z,6.07
2023-01-10T14:46:21.765Z,6.14
2023-01-10T14:48:51.985Z,6.22
2023-01-10T14:51:24.419Z,6.12
2023-01-10T14:54:02.938Z,6.09
2023-01-10T14:56:55.790Z,6.07
2023-01-10T14:59:36.074Z,5.99
2023-01-10T15:02:25.080Z,5.92
2023-01-10T15:05:18.275Z,5.95
2023-01-10T15:07:44.807Z,6.00
2023-01-10T15:10:40.849Z,5.83
2023-01-10T15:13:13.146Z,5.93
2023-01-10T15:15:40.823Z,5.91
2023-01-10T15:18:38.378Z,5.88
2023-01-10T15:21:07.227Z,5.83
2023-01-10T15:23:40.126Z,5.74
2023-01-10T15:26:16.217Z,5.69
2023-01-10T15:29:02.793Z,5.62
2023-01-10T15:31:29.691Z,5.63
2023-01-10T15:33:56.499Z,5.65
2023-01-10T15:36:27.776Z,5.61
2023-01-10T15:38:54.900Z,5.72
2023-01-10T15:41:24.252Z,5.81
2023-01-10T15:43:51.956Z,5.81
2023-01-10T15:46:23.134Z,5.80
2023-01-10T15:49:02.814Z,5.70
2023-01-10T15:51:37.251Z,5.68
2023-01-10T15:54:30.844Z,5.67
2023-01-10T15:57:24.821Z,5.76
2023-01-10T15:59:52.019Z,5.79
2023-01-10T16:02:29.636Z,5.67
2023-01-10T16:05:07.314Z,5.66
2023-01-10T16:07:42.056Z,5.69
2023-01-10T16:10:25.555Z,5.62
2023-01-10T16:13:10.674Z,5.68
2023-01-10T16:15:44.304Z,5.55
2023-01-10T16:18:10.755Z,5.48
2023-01-10T16:20:45.976Z,5.58
2023-01-10T16:23:36.073Z,5.60
2023-01-10T16:26:09.098Z,5.54
2023-01-10T16:28:37.292Z,5.66
2023-01-10T16:31:06.907Z,5.67
2023-01-10T16:33:33.640Z,5.67
2023-01-10T16:36:00.696Z,5.71
2023-01-10T16:38:29.154Z,5.46
2023-01-10T16:41:21.744Z,5.43
2023-01-10T16:43:51.923Z,5.42
2023-01-10T16:46:18.479Z,5.59
2023-01-10T16:48:49.898Z,5.71
2023-01-10T16:51:21.486Z,5.74
2023-01-10T16:53:48.457Z,5.78
2023-01-10T16:56:22.964Z,5.83
2023-01-10T16:58:51.657Z,5.76
2023-01-10T17:01:24.125Z,5.74
2023-01-10T17:03:51.490Z,5.80
2023-01-10T17:06:18.034Z,5.89
2023-01-10T17:08:45.004Z,5.92
2023-01-10T17:11:20.476Z,5.87
2023-01-10T17:13:47.641Z,5.90
2023-01-10T17:16:19.264Z,5.84
2023-01-10T17:18:46.533Z,5.88
2023-01-10T17:21:19.587Z,5.68
2023-01-10T17:23:46.986Z,5.83
2023-01-10T17:26:17.506Z,5.87
2023-01-10T17:28:49.379Z,5.86
2023-01-10T17:31:19.488Z,5.91
2023-01-10T17:33:46.135Z,5.76
2023-01-10T17:36:12.640Z,5.78
2023-01-10T17:38:39.180Z,5.69
2023-01-10T17:41:07.232Z,5.41
2023-01-10T17:43:33.701Z,5.56
2023-01-10T17:46:05.721Z,5.58
2023-01-10T17:48:34.585Z,5.66
2023-01-10T17:51:02.932Z,5.52
2023-01-10T17:53:30.301Z,5.52
2023-01-10T17:55:58.275Z,5.49
2023-01-10T17:58:24.924Z,5.47
2023-01-10T18:00:51.487Z,5.57
2023-01-10T18:03:18.061Z,5.54
2023-01-10T18:05:56.454Z,5.48
2023-01-10T18:08:24.706Z,5.44
2023-01-10T18:10:51.764Z,5.44
2023-01-10T18:13:23.016Z,5.43
2023-01-10T18:15:49.837Z,5.50
2023-01-10T18:18:16.877Z,5.39
2023-01-10T18:20:44.886Z,5.40
2023-01-10T18:23:21.675Z,5.29
2023-01-10T18:26:08.107Z,5.25
2023-01-10T18:28:42.919Z,5.21
2023-01-10T18:31:17.106Z,5.23
2023-01-10T18:33:46.157Z,5.32
2023-01-10T18:36:16.634Z,5.27
2023-01-10T18:38:44.436Z,5.24
2023-01-10T18:41:12.306Z,5.23
2023-01-10T18:43:39.215Z,5.17
2023-01-10T18:46:11.506Z,5.25
2023-01-10T18:48:38.424Z,5.32
2023-01-10T18:51:06.383Z,5.26
2023-01-10T18:53:33.232Z,5.21
2023-01-10T18:56:06.842Z,5.25
2023-01-10T18:58:39.668Z,5.24
2023-01-10T19:01:13.792Z,5.13
2023-01-10T19:03:40.755Z,5.12
2023-01-10T19:06:14.317Z,5.21
2023-01-10T19:08:41.250Z,5.22
2023-01-10T19:11:14.345Z,5.19
2023-01-10T19:13:42.938Z,5.20
2023-01-10T19:16:17.106Z,5.10
2023-01-10T19:18:50.719Z,4.97
2023-01-10T19:21:17.373Z,4.86
2023-01-10T19:23:46.572Z,4.93
2023-01-10T19:26:14.776Z,4.93
2023-01-10T19:28:43.667Z,4.95
2023-01-10T19:31:27.668Z,4.98
2023-01-10T19:33:57.699Z,4.99
2023-01-10T19:36:24.359Z,5.01
2023-01-10T19:38:58.874Z,4.89
2023-01-10T19:41:28.474Z,4.91
2023-01-10T19:43:57.108Z,4.93
2023-01-10T19:46:24.593Z,4.95
2023-01-10T19:48:51.293Z,5.03
2023-01-10T19:51:17.779Z,5.03
2023-01-10T19:53:46.287Z,5.02
2023-01-10T19:56:22.837Z,4.98
2023-01-10T19:58:50.569Z,5.02
2023-01-10T20:01:24.561Z,5.13
2023-01-10T20:03:51.851Z,5.21
2023-01-10T20:06:24.399Z,5.19
2023-01-10T20:08:51.421Z,5.18
2023-01-10T20:11:18.242Z,5.12
2023-01-10T20:13:45.291Z,5.17
2023-01-10T20:16:13.896Z,5.10
2023-01-10T20:18:41.351Z,5.11
2023-01-10T20:21:11.073Z,5.19
2023-01-10T20:23:39.671Z,5.16
2023-01-10T20:26:15.588Z,5.08
2023-01-10T20:28:44.260Z,5.05
2023-01-10T20:31:21.840Z,5.02
2023-01-10T20:33:49.447Z,5.02
2023-01-10T20:36:21.305Z,5.05
2023-01-10T20:38:48.877Z,5.03
2023-01-10T20:41:26.274Z,4.99
2023-01-10T20:43:55.464Z,5.09
2023-01-10T20:46:26.647Z,5.12
2023-01-10T20:48:55.798Z,5.22
2023-01-10T20:51:31.523Z,5.24
2023-01-10T20:53:59.453Z,5.27
2023-01-10T20:56:30.646Z,5.18
2023-01-10T20:58:57.824Z,5.22
2023-01-10T21:01:34.246Z,5.16
2023-01-10T21:04:03.960Z,5.09
2023-01-10T21:06:32.127Z,5.09
2023-01-10T21:08:58.981Z,5.04
2023-01-10T21:11:25.521Z,5.16
2023-01-10T21:13:52.473Z,5.22
2023-01-10T21:16:20.754Z,5.26
2023-01-10T21:18:47.971Z,5.27
2023-01-10T21:21:18.560Z,5.28
2023-01-10T21:23:45.099Z,5.34
2023-01-10T21:26:14.773Z,5.38
2023-01-10T21:28:47.167Z,5.39
2023-01-10T21:31:20.522Z,5.45
2023-01-10T21:33:49.068Z,5.61
2023-01-10T21:36:16.589Z,5.45
2023-01-10T21:38:43.687Z,5.45
2023-01-10T21:41:36.148Z,5.48
2023-01-10T21:44:04.701Z,5.55
2023-01-10T21:46:31.823Z,5.50
2023-01-10T21:48:58.302Z,5.49
2023-01-10T21:51:24.813Z,5.54
2023-01-10T21:53:51.399Z,5.50
2023-01-10T21:56:17.895Z,5.55
2023-01-10T21:58:44.483Z,5.51
2023-01-10T22:01:10.998Z,5.46
2023-01-10T22:03:37.545Z,5.45
2023-01-10T22:06:04.328Z,5.46
2023-01-10T22:08:30.832Z,5.53
2023-01-10T22:10:57.352Z,5.48
2023-01-10T22:13:26.994Z,5.50
2023-01-10T22:16:00.487Z,5.61
2023-01-10T22:18:28.663Z,5.59
2023-01-10T22:20:55.887Z,5.67
2023-01-10T22:23:24.304Z,5.71
2023-01-10T22:26:20.069Z,5.70
2023-01-10T22:28:46.577Z,5.73
2023-01-10T22:31:13.137Z,5.75
2023-01-10T22:33:39.687Z,5.71
2023-01-10T22:36:24.424Z,5.69
2023-01-10T22:38:50.946Z,5.72
2023-01-10T22:41:26.437Z,5.78
2023-01-10T22:43:53.888Z,5.80
2023-01-10T22:46:21.010Z,5.72
2023-01-10T22:48:47.731Z,5.80
2023-01-10T22:51:17.302Z,5.81
2023-01-10T22:53:50.307Z,5.78
2023-01-10T22:56:17.172Z,5.86
2023-01-10T22:58:48.185Z,5.85
2023-01-10T23:01:21.362Z,5.82
2023-01-10T23:03:48.522Z,5.87
2023-01-10T23:06:16.324Z,5.87
2023-01-10T23:08:44.140Z,5.88
2023-01-10T23:11:16.102Z,5.83
2023-01-10T23:13:42.996Z,5.83
2023-01-10T23:16:15.290Z,5.92
2023-01-10T23:18:42.416Z,5.98
2023-01-10T23:21:09.830Z,6.02
2023-01-10T23:23:36.647Z,6.00
2023-01-10T23:26:07.483Z,6.00
2023-01-10T23:28:42.477Z,6.06
2023-01-10T23:31:09.051Z,6.07
2023-01-10T23:33:35.765Z,5.98
2023-01-10T23:36:03.760Z,6.05
2023-01-10T23:38:31.127Z,6.04
2023-01-10T23:40:58.433Z,6.07
2023-01-10T23:43:25.313Z,6.14
2023-01-10T23:45:51.823Z,6.16
2023-01-10T23:48:18.720Z,6.16
2023-01-10T23:50:48.696Z,6.17
2023-01-10T23:53:15.725Z,6.19
2023-01-10T23:55:42.519Z,6.21
2023-01-10T23:58:09.078Z,6.24
